HRHO2: North Canadian River

                                SHEF ID:       HRHO2     North Canadian River near Harrah
STATION TYPE:
Regulating: Stage = 15.00, Flow = 8563

STAGE RIV-FLOW WTR-TEMP DIS-OXY PH CONDUCT BAT-LOAD
ft cfs F mg/l su umho/cm volt
Ccp-Rev Ccp-Rev Ccp-Rev Ccp-Rev Ccp-Rev Ccp-Rev Ccp-Rev
(America/Chicago)
05/03 00:00 3.22 120 68.63 7.02 7.96 873 12.07
05/03 01:00 3.22 120 67.64 7.05 7.90 874 12.07
05/03 02:00 3.22 120 66.81 6.95 7.85 875 12.05
05/03 03:00 3.23 122 66.04 7.14 7.81 874 12.04
05/03 04:00 3.24 123 65.28 6.97 7.77 875 12.02
05/03 05:00 3.24 123 64.56 6.97 7.73 875 12.00
05/03 06:00 3.25 125 63.93 6.93 7.70 876 11.99
05/03 07:00 3.26 127 63.39 7.35 7.71 877 11.97
05/03 08:00 3.26 127 63.59 7.70 7.75 878 11.98
05/03 09:00 3.27 129 64.98 8.40 7.83 879 12.10
05/03 10:00 3.27 129 67.39 8.95 7.92 880 12.23
05/03 11:00 3.28 131 70.34 9.59 8.01 881 12.96
05/03 12:00 3.27 129 73.38 10.03 8.10 882 12.90
05/03 13:00 3.28 131 76.14 10.23 8.16 882 12.94
05/03 14:00 3.27 129 78.24 10.25 8.23 883 12.84
05/03 15:00 3.27 129 79.54 10.29 8.29 882 12.99
05/03 16:00 3.27 129 80.10 10.48 8.36 882 12.87
05/03 17:00 3.26 127 79.70 10.48 8.40 879 12.76
05/03 18:00 3.26 127 78.60 10.08 8.43 879 12.69
05/03 19:00 3.25 125 76.80 9.51 8.42 881 12.60
05/03 20:00 3.25 125 74.97 8.86 8.39 873 12.53
05/03 21:00 3.24 123 73.18 8.06 8.32 874 12.28
05/03 22:00 3.23 122 71.47 7.45 8.23 875 12.14
05/03 23:00 3.23 122 70.56 7.15 8.17 875 12.04
Data processed at Mon 04May2026 04:25 GMT

NOTICE: If you are parsing this page

Please convert to using our Data API. Starting early 2026 we will be migrating to: https://water.usace.army.mil with modern pages rendered in JavaScript. When this migration completes you will no longer be able to scrape this page! CWMSDataAPI (CDA)

Timeseries IDs (TSIDs)

TSIDs used from left to right in the data table
HARR.Stage.Inst.1Hour.0.Ccp-Rev
HARR.Flow.Inst.1Hour.0.Ccp-Rev
HARR.Temp-Water.Inst.1Hour.0.Ccp-Rev
HARR.Conc-DO.Inst.1Hour.0.Ccp-Rev
HARR.pH.Inst.1Hour.0.Ccp-Rev
HARR.Cond-Water.Inst.1Hour.0.Ccp-Rev
HARR.Volt-Battery Load.Inst.1Hour.0.Ccp-Rev

                            

All information presented herein is the property of the government of the United States of America and may be revised or deleted at any time without prior notice. Dissemination of this information without the expressed written consent of the Public Affairs Office, Tulsa District U.S. Army Corps of Engineers is strictly prohibited. These data are gathered electronically and, as presented, have NOT undergone any form of quality control. These data are NOT guaranteed to be valid or correct.